Time;durP1;ratioP1;P1;durP2;ratioP2;P2;SDS_P1;SDS_P2;PMS_P1;PMS_P2;Temp;Humidity;BMP_temperature;BMP_pressure;BME280_temperature;BME280_humidity;BME280_pressure;Samples;Min_cycle;Max_cycle;Signal;HPM_P1;HPM_P2
2022/08/21 00:01:31;;;;;;;6.63;5.70;;;18.10;99.90;;;;;;5078066;28;20467;-86
2022/08/21 00:03:58;;;;;;;8.20;5.70;;;18.10;99.90;;;;;;5079230;28;20429;-86
2022/08/21 00:06:25;;;;;;;6.97;6.27;;;18.20;99.90;;;;;;5070225;28;20445;-87
2022/08/21 00:08:53;;;;;;;6.07;5.37;;;18.10;99.90;;;;;;5056606;28;20476;-87
2022/08/21 00:11:21;;;;;;;5.97;5.37;;;18.00;99.90;;;;;;5053580;28;20482;-86
2022/08/21 00:13:48;;;;;;;10.53;5.17;;;18.00;99.90;;;;;;5053634;28;20451;-87
2022/08/21 00:16:14;;;;;;;6.20;5.13;;;18.00;99.90;;;;;;5052703;28;20571;-86
2022/08/21 00:18:41;;;;;;;6.53;5.50;;;17.90;99.90;;;;;;5052915;28;20449;-86
2022/08/21 00:21:08;;;;;;;5.17;4.67;;;17.90;99.90;;;;;;5052700;28;21031;-86
2022/08/21 00:23:36;;;;;;;6.20;5.60;;;17.80;99.90;;;;;;5052919;28;20479;-86
2022/08/21 00:26:04;;;;;;;7.00;5.20;;;17.70;99.90;;;;;;5052869;28;20452;-86
2022/08/21 00:28:31;;;;;;;6.50;5.83;;;17.70;99.90;;;;;;5068120;28;20425;-86
2022/08/21 00:30:58;;;;;;;8.50;5.20;;;17.70;99.90;;;;;;5073919;28;20853;-86
2022/08/21 00:33:26;;;;;;;7.70;5.70;;;17.70;99.90;;;;;;5076428;28;20470;-86
2022/08/21 00:35:53;;;;;;;7.93;4.70;;;17.70;99.90;;;;;;5070540;28;20475;-86
2022/08/21 00:38:20;;;;;;;6.23;5.20;;;17.60;99.90;;;;;;5053822;28;20514;-87
2022/08/21 00:40:50;;;;;;;11.83;6.07;;;17.60;99.90;;;;;;5053497;28;20817;-87
2022/08/21 00:43:20;;;;;;;5.73;5.00;;;17.50;99.90;;;;;;5053232;28;20441;-86
2022/08/21 00:45:47;;;;;;;6.27;5.63;;;17.50;99.90;;;;;;5052939;28;20460;-86
2022/08/21 00:48:14;;;;;;;7.53;4.87;;;17.50;99.90;;;;;;5052850;28;20445;-86
2022/08/21 00:50:47;;;;;;;7.63;4.90;;;17.40;99.90;;;;;;5053540;28;20480;-86
2022/08/21 00:53:15;;;;;;;5.10;4.53;;;17.50;99.90;;;;;;5052908;28;20889;-86
2022/08/21 00:55:42;;;;;;;8.20;5.40;;;17.50;99.90;;;;;;5052938;28;20957;-86
2022/08/21 00:58:11;;;;;;;7.63;5.80;;;17.40;99.90;;;;;;5052558;28;20449;-87
2022/08/21 01:00:42;;;;;;;5.50;5.00;;;17.30;99.90;;;;;;5052012;28;20823;-86
2022/08/21 01:03:12;;;;;;;6.50;4.40;;;17.30;99.90;;;;;;5054810;28;20463;-86
2022/08/21 01:05:40;;;;;;;6.00;4.93;;;17.30;99.90;;;;;;5056727;28;20443;-86
2022/08/21 01:08:08;;;;;;;6.10;5.30;;;17.20;99.90;;;;;;5057293;28;20416;-87
2022/08/21 01:10:35;;;;;;;4.80;4.07;;;17.20;99.90;;;;;;5077765;28;20510;-87
2022/08/21 01:13:03;;;;;;;5.40;4.90;;;17.10;99.90;;;;;;5071364;28;20461;-87
2022/08/21 01:15:32;;;;;;;5.00;4.50;;;17.10;99.90;;;;;;5054521;28;20543;-87
2022/08/21 01:18:01;;;;;;;5.10;4.60;;;17.10;99.90;;;;;;5055696;28;20449;-87
2022/08/21 01:20:29;;;;;;;6.07;4.30;;;17.10;99.90;;;;;;5053663;28;20448;-87
2022/08/21 01:22:57;;;;;;;6.30;4.53;;;17.00;99.90;;;;;;5052261;28;20469;-87
2022/08/21 01:25:24;;;;;;;5.80;3.90;;;17.10;99.90;;;;;;5052030;28;21074;-87
2022/08/21 01:27:51;;;;;;;5.20;4.70;;;16.90;99.90;;;;;;5052072;28;20453;-86
2022/08/21 01:30:22;;;;;;;8.60;4.63;;;16.90;99.90;;;;;;5070127;28;20483;-86
2022/08/21 01:32:50;;;;;;;7.40;4.70;;;16.90;99.90;;;;;;5075063;28;20460;-87
2022/08/21 01:35:19;;;;;;;5.90;4.80;;;16.80;99.90;;;;;;5076077;28;20447;-86
2022/08/21 01:37:47;;;;;;;4.60;4.20;;;16.80;99.90;;;;;;5077610;28;20435;-87
2022/08/21 01:40:18;;;;;;;5.97;5.10;;;16.80;99.90;;;;;;5075660;28;20432;-86
2022/08/21 01:42:46;;;;;;;5.13;3.97;;;16.80;99.90;;;;;;5065902;28;20958;-87
2022/08/21 01:45:13;;;;;;;5.90;4.33;;;16.70;99.90;;;;;;5056608;28;21011;-87
2022/08/21 01:47:40;;;;;;;8.23;4.50;;;16.70;99.90;;;;;;5053420;28;20453;-87
2022/08/21 01:50:11;;;;;;;5.40;4.90;;;16.70;99.90;;;;;;5052356;28;20864;-87
2022/08/21 01:52:37;;;;;;;4.23;3.83;;;16.70;99.90;;;;;;5056324;28;20469;-87
2022/08/21 01:55:05;;;;;;;6.77;4.80;;;16.60;99.90;;;;;;5062926;28;20475;-87
2022/08/21 01:57:34;;;;;;;6.20;4.00;;;16.70;99.90;;;;;;5060573;28;20500;-87
2022/08/21 02:00:01;;;;;;;7.37;4.77;;;16.70;99.90;;;;;;5054809;28;20444;-87
2022/08/21 02:02:27;;;;;;;4.60;4.20;;;16.70;99.90;;;;;;5052314;28;20476;-87
2022/08/21 02:04:54;;;;;;;7.90;4.50;;;16.70;99.90;;;;;;5056004;28;20455;-87
2022/08/21 02:07:21;;;;;;;4.93;4.20;;;16.60;99.90;;;;;;5052266;28;20448;-87
2022/08/21 02:09:48;;;;;;;6.07;4.07;;;16.60;99.90;;;;;;5055552;28;20484;-87
2022/08/21 02:12:15;;;;;;;5.77;4.17;;;16.50;99.90;;;;;;5055733;28;20465;-87
2022/08/21 02:14:43;;;;;;;7.10;5.17;;;16.50;99.90;;;;;;5058047;28;20448;-86
2022/08/21 02:17:10;;;;;;;8.90;4.73;;;16.50;99.90;;;;;;5081295;28;20417;-87
2022/08/21 02:19:37;;;;;;;7.83;4.97;;;16.50;99.90;;;;;;5081545;28;20428;-86
2022/08/21 02:22:04;;;;;;;8.27;4.57;;;16.50;99.90;;;;;;5081392;28;20453;-86
2022/08/21 02:24:31;;;;;;;5.87;5.27;;;16.50;99.90;;;;;;5081357;28;20420;-87
2022/08/21 02:26:58;;;;;;;8.37;4.90;;;16.40;99.90;;;;;;5065370;28;20516;-87
2022/08/21 02:29:24;;;;;;;4.93;4.23;;;16.40;99.90;;;;;;5056164;28;20562;-87
2022/08/21 02:31:52;;;;;;;7.63;4.80;;;16.30;99.90;;;;;;5055330;28;20994;-87
2022/08/21 02:34:19;;;;;;;8.00;5.80;;;16.40;99.90;;;;;;5055607;28;20862;-87
2022/08/21 02:36:46;;;;;;;6.30;5.50;;;16.40;99.90;;;;;;5054846;28;20448;-87
2022/08/21 02:39:12;;;;;;;6.50;5.33;;;16.40;99.90;;;;;;5055326;28;20598;-86
2022/08/21 02:41:39;;;;;;;7.90;4.70;;;16.40;99.90;;;;;;5056090;28;20473;-86
2022/08/21 02:44:06;;;;;;;7.40;6.73;;;16.30;99.90;;;;;;5055720;28;20937;-87
2022/08/21 02:46:33;;;;;;;7.17;4.90;;;16.40;99.90;;;;;;5055225;28;20494;-87
2022/08/21 02:49:01;;;;;;;6.10;4.73;;;16.30;99.90;;;;;;5054020;28;20444;-87
2022/08/21 02:51:27;;;;;;;7.40;5.20;;;16.30;99.90;;;;;;5054529;28;20981;-86
2022/08/21 02:53:54;;;;;;;6.10;5.60;;;16.30;99.90;;;;;;5054668;28;20456;-87
2022/08/21 02:56:22;;;;;;;5.30;4.80;;;16.20;99.90;;;;;;5054299;28;20494;-87
2022/08/21 02:58:52;;;;;;;6.30;5.53;;;16.20;99.90;;;;;;5054504;28;20480;-87
2022/08/21 03:01:19;;;;;;;6.43;4.70;;;16.30;99.90;;;;;;5054496;28;20476;-87
2022/08/21 03:03:49;;;;;;;5.93;4.63;;;16.20;99.90;;;;;;5054706;28;20441;-87
2022/08/21 03:06:19;;;;;;;5.50;4.90;;;16.20;99.90;;;;;;5054482;28;20453;-86
2022/08/21 03:08:46;;;;;;;7.70;5.07;;;16.20;99.90;;;;;;5055030;28;20494;-87
2022/08/21 03:11:13;;;;;;;5.30;4.80;;;16.10;99.90;;;;;;5056640;28;20488;-86
2022/08/21 03:13:40;;;;;;;5.43;4.93;;;16.10;99.90;;;;;;5060481;28;20491;-87
2022/08/21 03:16:08;;;;;;;5.40;4.90;;;16.10;99.90;;;;;;5055354;28;20946;-87
2022/08/21 03:18:35;;;;;;;7.73;5.20;;;16.00;99.90;;;;;;5055122;28;20541;-87
2022/08/21 03:21:02;;;;;;;5.70;5.20;;;16.00;99.90;;;;;;5054523;28;20891;-86
2022/08/21 03:23:31;;;;;;;15.33;5.20;;;15.90;99.90;;;;;;5072430;28;20428;-85
2022/08/21 03:25:58;;;;;;;5.93;4.80;;;15.90;99.90;;;;;;5074211;28;20441;-86
2022/08/21 03:28:25;;;;;;;6.33;4.90;;;15.80;99.90;;;;;;5054562;28;20444;-87
2022/08/21 03:30:53;;;;;;;8.37;5.30;;;15.80;99.90;;;;;;5054684;28;20517;-86
2022/08/21 03:33:20;;;;;;;8.90;5.10;;;15.80;99.90;;;;;;5054503;28;20429;-87
2022/08/21 03:35:53;;;;;;;5.80;4.40;;;15.80;99.90;;;;;;5054259;28;20452;-86
2022/08/21 03:38:19;;;;;;;7.00;4.83;;;15.80;99.90;;;;;;5053946;28;20498;-86
2022/08/21 03:40:47;;;;;;;9.77;5.00;;;15.90;99.90;;;;;;5053863;28;20440;-86
2022/08/21 03:43:14;;;;;;;6.20;5.60;;;15.80;99.90;;;;;;5056843;28;20456;-86
2022/08/21 03:45:41;;;;;;;8.87;5.17;;;15.80;99.90;;;;;;5077050;28;20437;-86
2022/08/21 03:48:09;;;;;;;7.23;5.20;;;15.80;99.90;;;;;;5060181;28;20858;-86
2022/08/21 03:50:40;;;;;;;7.17;5.30;;;15.80;99.90;;;;;;5053372;28;20575;-86
2022/08/21 03:53:07;;;;;;;5.53;5.00;;;15.70;99.90;;;;;;5057246;28;20450;-86
2022/08/21 03:55:34;;;;;;;5.47;4.80;;;15.70;99.90;;;;;;5075671;28;20425;-86
2022/08/21 03:58:03;;;;;;;5.97;5.00;;;15.70;99.90;;;;;;5061451;28;20445;-86
2022/08/21 04:00:30;;;;;;;5.97;5.10;;;15.60;99.90;;;;;;5053740;28;20506;-86
2022/08/21 04:02:57;;;;;;;6.67;5.03;;;15.60;99.90;;;;;;5053315;28;20981;-86
2022/08/21 04:05:30;;;;;;;6.17;5.20;;;15.60;99.90;;;;;;5053997;28;20484;-87
2022/08/21 04:07:59;;;;;;;6.23;5.50;;;15.50;99.90;;;;;;5068618;28;20444;-87
2022/08/21 04:10:27;;;;;;;8.50;5.40;;;15.50;99.90;;;;;;5072203;28;20534;-86
2022/08/21 04:12:55;;;;;;;5.63;4.97;;;15.50;99.90;;;;;;5053657;28;20469;-87
2022/08/21 04:15:25;;;;;;;5.77;4.83;;;15.50;99.90;;;;;;5053322;28;20452;-87
2022/08/21 04:17:52;;;;;;;8.03;4.70;;;15.50;99.90;;;;;;5056451;28;20446;-86
2022/08/21 04:20:21;;;;;;;8.47;5.70;;;15.50;99.90;;;;;;5074381;28;20498;-86
2022/08/21 04:22:50;;;;;;;5.70;5.10;;;15.50;99.90;;;;;;5077526;28;20441;-86
2022/08/21 04:25:18;;;;;;;9.67;6.00;;;15.50;99.90;;;;;;5073796;28;20460;-86
2022/08/21 04:27:45;;;;;;;8.10;5.63;;;15.50;99.90;;;;;;5056414;28;20547;-86
2022/08/21 04:30:13;;;;;;;11.37;4.90;;;15.50;99.90;;;;;;5064015;28;20564;-86
2022/08/21 04:32:44;;;;;;;8.47;4.90;;;15.50;99.90;;;;;;5077607;28;20456;-86
2022/08/21 04:35:12;;;;;;;6.00;5.47;;;15.40;99.90;;;;;;5062612;28;20487;-87
2022/08/21 04:37:38;;;;;;;6.60;4.80;;;15.50;99.90;;;;;;5053669;28;20453;-87
2022/08/21 04:40:07;;;;;;;5.27;4.77;;;15.50;99.90;;;;;;5053257;28;20444;-87
2022/08/21 04:42:41;;;;;;;6.67;5.70;;;15.50;99.90;;;;;;5052971;28;20477;-87
2022/08/21 04:45:08;;;;;;;5.70;5.10;;;15.50;99.90;;;;;;5053406;28;20437;-86
2022/08/21 04:47:34;;;;;;;5.70;5.10;;;15.50;99.90;;;;;;5053595;28;20840;-86
2022/08/21 04:50:02;;;;;;;5.90;5.40;;;15.60;99.90;;;;;;5053118;28;20484;-86
2022/08/21 04:52:29;;;;;;;7.50;6.30;;;15.60;99.90;;;;;;5053181;28;20479;-87
2022/08/21 04:54:56;;;;;;;6.03;5.53;;;15.70;99.90;;;;;;5052887;28;20860;-86
2022/08/21 04:57:23;;;;;;;5.60;5.10;;;15.80;99.90;;;;;;5052983;28;20456;-86
2022/08/21 04:59:51;;;;;;;9.00;5.33;;;16.00;99.90;;;;;;5052352;28;20456;-86
2022/08/21 05:02:19;;;;;;;5.73;4.97;;;16.10;99.90;;;;;;5052185;28;20830;-86
2022/08/21 05:04:50;;;;;;;6.47;5.37;;;16.20;99.90;;;;;;5052065;28;20441;-86
2022/08/21 05:07:22;;;;;;;5.80;5.30;;;16.40;99.90;;;;;;5052732;28;20464;-86
2022/08/21 05:09:49;;;;;;;7.30;4.80;;;16.60;99.90;;;;;;5052312;28;20445;-87
2022/08/21 05:12:16;;;;;;;6.57;5.93;;;16.90;99.90;;;;;;5052321;28;20466;-86
2022/08/21 05:14:43;;;;;;;6.00;5.40;;;17.20;99.90;;;;;;5052185;28;20453;-87
2022/08/21 05:17:10;;;;;;;5.33;4.10;;;17.50;99.90;;;;;;5052244;28;20440;-87
2022/08/21 05:19:37;;;;;;;5.07;4.67;;;17.80;99.90;;;;;;5052096;28;20445;-87
2022/08/21 05:22:04;;;;;;;9.73;4.20;;;18.00;99.90;;;;;;5054961;28;20473;-87
2022/08/21 05:24:32;;;;;;;4.50;4.10;;;18.10;99.90;;;;;;5052947;28;20452;-86
2022/08/21 05:26:59;;;;;;;5.83;4.40;;;18.10;99.90;;;;;;5052073;28;20464;-86
2022/08/21 05:29:26;;;;;;;5.70;4.20;;;18.00;99.90;;;;;;5067448;28;20437;-86
2022/08/21 05:31:53;;;;;;;4.67;4.20;;;17.80;99.90;;;;;;5077071;28;20488;-85
2022/08/21 05:34:24;;;;;;;6.83;4.30;;;17.50;99.90;;;;;;5078290;28;20486;-86
2022/08/21 05:36:50;;;;;;;7.53;5.10;;;17.50;99.90;;;;;;5078059;28;20446;-87
2022/08/21 05:39:17;;;;;;;5.10;4.30;;;17.50;99.90;;;;;;5077697;28;20452;-86
2022/08/21 05:41:45;;;;;;;6.70;5.27;;;17.50;99.90;;;;;;5068955;28;20467;-86
2022/08/21 05:44:12;;;;;;;7.60;4.70;;;17.40;99.90;;;;;;5063779;28;20450;-85
2022/08/21 05:46:39;;;;;;;5.83;3.93;;;17.40;99.90;;;;;;5062019;28;20449;-86
2022/08/21 05:49:05;;;;;;;6.20;5.70;;;17.30;99.90;;;;;;5057589;28;20441;-86
2022/08/21 05:51:32;;;;;;;7.23;5.30;;;17.40;99.90;;;;;;5064629;28;20484;-86
2022/08/21 05:53:59;;;;;;;8.50;5.40;;;17.30;99.90;;;;;;5061423;28;20441;-86
2022/08/21 05:56:26;;;;;;;6.03;4.80;;;17.40;99.90;;;;;;5071000;28;20466;-86
2022/08/21 05:58:54;;;;;;;6.23;4.50;;;17.80;99.90;;;;;;5077639;28;20441;-86
2022/08/21 06:01:20;;;;;;;4.93;4.50;;;18.00;99.90;;;;;;5057613;28;20477;-86
2022/08/21 06:03:47;;;;;;;5.57;5.07;;;18.20;99.90;;;;;;5056426;28;20444;-87
2022/08/21 06:06:14;;;;;;;4.70;4.10;;;18.30;99.90;;;;;;5055559;28;20448;-87
2022/08/21 06:08:40;;;;;;;6.33;4.50;;;18.50;99.90;;;;;;5055796;28;20444;-87
2022/08/21 06:11:09;;;;;;;5.40;4.27;;;19.00;99.90;;;;;;5055756;28;20484;-87
2022/08/21 06:13:36;;;;;;;4.50;4.10;;;19.60;99.90;;;;;;5055569;28;20448;-87
2022/08/21 06:16:08;;;;;;;9.60;5.90;;;20.40;99.90;;;;;;5055619;28;20498;-87
2022/08/21 06:18:36;;;;;;;6.30;4.43;;;20.90;99.90;;;;;;5056037;28;20476;-87
2022/08/21 06:21:03;;;;;;;5.80;4.53;;;21.60;99.90;;;;;;5079357;28;20792;-87
2022/08/21 06:23:29;;;;;;;4.73;4.23;;;22.30;99.90;;;;;;5081547;28;20419;-86
2022/08/21 06:25:57;;;;;;;4.80;4.30;;;22.60;98.60;;;;;;5078771;28;20446;-87
2022/08/21 06:28:23;;;;;;;4.57;4.17;;;23.50;97.40;;;;;;5062547;28;20453;-87
2022/08/21 06:30:50;;;;;;;5.37;4.10;;;24.30;94.80;;;;;;5055833;28;20479;-88
2022/08/21 06:33:18;;;;;;;4.20;3.60;;;24.60;92.90;;;;;;5055491;28;20489;-87
2022/08/21 06:35:45;;;;;;;3.93;3.37;;;25.10;90.70;;;;;;5055390;28;20515;-87
2022/08/21 06:38:12;;;;;;;4.50;4.10;;;25.40;88.50;;;;;;5057575;28;20455;-87
2022/08/21 06:40:39;;;;;;;5.03;4.03;;;25.90;85.90;;;;;;5055461;28;20445;-87
2022/08/21 06:43:07;;;;;;;5.47;4.43;;;26.10;82.60;;;;;;5055223;28;20947;-88
2022/08/21 06:45:34;;;;;;;4.20;3.80;;;26.40;82.00;;;;;;5073180;28;20450;-87
2022/08/21 06:48:01;;;;;;;6.60;5.87;;;26.30;81.40;;;;;;5074654;28;20504;-87
2022/08/21 06:50:29;;;;;;;5.00;3.77;;;27.00;79.40;;;;;;5055478;28;20475;-85
2022/08/21 06:53:01;;;;;;;5.10;3.60;;;27.50;75.10;;;;;;5055535;28;20471;-87
2022/08/21 06:55:27;;;;;;;4.93;3.93;;;27.60;74.40;;;;;;5054048;28;20519;-88
2022/08/21 06:57:54;;;;;;;5.20;3.73;;;27.50;71.90;;;;;;5055457;28;20528;-85
2022/08/21 07:00:21;;;;;;;6.70;3.93;;;28.10;71.00;;;;;;5055356;28;20452;-85
2022/08/21 07:02:48;;;;;;;6.90;4.53;;;28.80;69.50;;;;;;5054526;28;21001;-88
2022/08/21 07:05:15;;;;;;;3.97;3.43;;;28.30;67.60;;;;;;5057938;28;20520;-87
2022/08/21 07:07:44;;;;;;;6.70;4.30;;;28.10;69.00;;;;;;5055109;28;20809;-86
2022/08/21 07:10:11;;;;;;;5.43;3.10;;;28.10;68.80;;;;;;5054223;28;20986;-86
2022/08/21 07:12:38;;;;;;;7.50;4.40;;;28.40;67.60;;;;;;5054313;28;20500;-86
2022/08/21 07:15:06;;;;;;;4.37;3.67;;;28.80;66.40;;;;;;5054391;28;20460;-86
2022/08/21 07:17:32;;;;;;;6.23;3.87;;;29.20;64.70;;;;;;5054243;28;20452;-86
2022/08/21 07:19:59;;;;;;;4.40;3.53;;;29.60;61.80;;;;;;5054725;28;20454;-86
2022/08/21 07:22:27;;;;;;;5.30;3.53;;;29.40;60.90;;;;;;5055520;28;20476;-87
2022/08/21 07:24:55;;;;;;;4.70;3.60;;;30.20;59.70;;;;;;5055241;28;20458;-86
2022/08/21 07:27:22;;;;;;;4.13;3.50;;;30.40;59.20;;;;;;5054718;28;20484;-87
2022/08/21 07:29:48;;;;;;;4.40;3.10;;;30.90;56.00;;;;;;5071804;28;20452;-87
2022/08/21 07:32:15;;;;;;;4.33;3.73;;;31.20;54.70;;;;;;5064775;28;20511;-87
2022/08/21 07:34:43;;;;;;;7.27;3.30;;;31.80;54.20;;;;;;5058523;28;20450;-86
2022/08/21 07:37:10;;;;;;;5.53;3.87;;;32.20;53.20;;;;;;5058522;28;20945;-87
2022/08/21 07:39:37;;;;;;;5.17;3.53;;;32.30;52.50;;;;;;5055517;28;20455;-87
2022/08/21 07:42:05;;;;;;;4.80;3.87;;;32.60;51.70;;;;;;5055019;28;20500;-87
2022/08/21 07:44:34;;;;;;;6.33;4.23;;;32.70;50.80;;;;;;5055940;28;20452;-87
2022/08/21 07:47:01;;;;;;;7.50;4.40;;;31.80;51.30;;;;;;5056265;28;20479;-87
2022/08/21 07:49:28;;;;;;;6.67;4.53;;;30.10;53.50;;;;;;5062946;28;20436;-87
2022/08/21 07:51:54;;;;;;;4.53;3.70;;;29.50;55.40;;;;;;5078047;28;20479;-87
2022/08/21 07:54:21;;;;;;;5.53;3.27;;;29.30;56.30;;;;;;5079059;28;20433;-87
2022/08/21 07:56:48;;;;;;;9.03;4.20;;;29.40;56.30;;;;;;5073055;28;20449;-86
2022/08/21 07:59:16;;;;;;;5.70;4.20;;;29.40;56.50;;;;;;5056536;28;20930;-86
2022/08/21 08:01:42;;;;;;;6.03;4.20;;;29.70;56.10;;;;;;5082530;22;20492;-86
2022/08/21 08:04:09;;;;;;;6.13;4.10;;;30.30;55.20;;;;;;5062732;28;20448;-85
2022/08/21 08:06:36;;;;;;;5.40;3.90;;;30.80;54.00;;;;;;5058185;28;20455;-86
2022/08/21 08:09:03;;;;;;;4.20;3.80;;;30.30;53.80;;;;;;5059473;28;20946;-86
2022/08/21 08:11:33;;;;;;;7.57;4.53;;;30.00;54.50;;;;;;5059803;28;20481;-86
2022/08/21 08:14:00;;;;;;;6.40;4.60;;;30.80;53.70;;;;;;5060544;28;20501;-86
2022/08/21 08:16:29;;;;;;;5.83;3.90;;;31.40;51.60;;;;;;5062198;28;20464;-88
2022/08/21 08:18:55;;;;;;;6.30;4.40;;;32.50;50.90;;;;;;5061982;28;20970;-85
2022/08/21 08:21:22;;;;;;;6.07;4.07;;;33.70;48.90;;;;;;5062508;28;20449;-85
2022/08/21 08:23:50;;;;;;;7.50;4.73;;;32.50;48.70;;;;;;5073996;28;20450;-84
2022/08/21 08:26:16;;;;;;;6.07;4.47;;;32.80;49.10;;;;;;5072249;28;20473;-85
2022/08/21 08:28:43;;;;;;;5.10;4.27;;;33.70;47.50;;;;;;5062239;28;20441;-85
2022/08/21 08:31:10;;;;;;;4.73;3.60;;;34.40;46.20;;;;;;5062876;28;20502;-86
2022/08/21 08:33:39;;;;;;;6.33;4.40;;;34.60;45.20;;;;;;5069039;28;20474;-85
2022/08/21 08:36:06;;;;;;;6.30;5.10;;;35.50;43.80;;;;;;5073980;28;20454;-85
2022/08/21 08:38:33;;;;;;;5.63;4.70;;;35.00;43.10;;;;;;5073044;28;20452;-85
2022/08/21 08:41:12;;;;;;;6.23;4.93;;;35.70;42.10;;;;;;5065849;28;20455;-85
2022/08/21 08:43:41;;;;;;;6.77;5.00;;;33.40;44.50;;;;;;5076943;28;20420;-87
2022/08/21 08:46:13;;;;;;;6.33;4.50;;;33.60;45.20;;;;;;5078284;28;20424;-85
2022/08/21 08:48:50;;;;;;;5.00;4.50;;;35.10;43.80;;;;;;5077086;28;20424;-86
2022/08/21 08:51:23;;;;;;;4.80;4.40;;;36.00;41.80;;;;;;5072291;28;20613;-85
2022/08/21 08:53:55;;;;;;;6.87;3.87;;;37.30;41.00;;;;;;5063422;28;20448;-85
2022/08/21 08:56:27;;;;;;;5.43;4.93;;;38.00;38.70;;;;;;5068893;28;20460;-86
2022/08/21 08:58:57;;;;;;;5.40;3.90;;;38.70;36.70;;;;;;5061606;28;20422;-86
2022/08/21 09:01:23;;;;;;;4.20;3.80;;;38.90;36.30;;;;;;5057674;28;20448;-86
2022/08/21 09:03:52;;;;;;;6.10;4.40;;;39.40;35.70;;;;;;5059082;28;20433;-86
2022/08/21 09:06:41;;;;;;;4.17;3.77;;;39.90;34.50;;;;;;5059172;28;20453;-85
2022/08/21 09:09:20;;;;;;;4.60;3.80;;;39.60;34.40;;;;;;5059129;28;20439;-86
2022/08/21 09:11:53;;;;;;;5.33;4.40;;;40.60;33.20;;;;;;5062294;28;20519;-86
2022/08/21 09:14:30;;;;;;;5.00;3.77;;;40.10;32.90;;;;;;5066653;28;20449;-86
2022/08/21 09:17:03;;;;;;;5.37;4.87;;;40.40;33.00;;;;;;5057010;28;21119;-85
2022/08/21 09:19:48;;;;;;;5.17;3.90;;;40.50;32.50;;;;;;5056350;28;20441;-86
2022/08/21 09:22:24;;;;;;;4.90;4.50;;;41.70;31.20;;;;;;5057188;28;20453;-86
2022/08/21 09:24:59;;;;;;;5.70;4.70;;;40.20;31.60;;;;;;5067686;28;20445;-85
2022/08/21 09:27:26;;;;;;;5.40;3.87;;;39.40;32.20;;;;;;5072452;28;20445;-85
2022/08/21 09:29:57;;;;;;;4.73;4.23;;;40.40;31.40;;;;;;5066218;28;21076;-85
2022/08/21 09:32:26;;;;;;;5.83;4.30;;;41.30;30.80;;;;;;5060291;28;20489;-86
2022/08/21 09:35:01;;;;;;;5.00;4.07;;;41.10;30.00;;;;;;5060564;28;20484;-85
2022/08/21 09:37:29;;;;;;;4.93;4.40;;;41.90;29.40;;;;;;5059055;28;20811;-85
2022/08/21 09:39:57;;;;;;;5.00;3.83;;;43.10;28.70;;;;;;5070807;28;20475;-86
2022/08/21 09:42:27;;;;;;;4.50;4.10;;;42.90;27.70;;;;;;5069608;28;20469;-86
2022/08/21 09:45:10;;;;;;;5.70;4.03;;;43.10;27.80;;;;;;5054918;28;20946;-86
2022/08/21 09:47:37;;;;;;;5.50;4.53;;;43.70;27.60;;;;;;5056466;28;20456;-86
2022/08/21 09:50:15;;;;;;;4.60;4.20;;;43.70;27.10;;;;;;5057258;28;20444;-86
2022/08/21 09:52:48;;;;;;;6.27;4.23;;;44.30;27.20;;;;;;5059271;28;21170;-86
2022/08/21 09:58:07;;;;;;;4.50;3.70;;;43.90;26.70;;;;;;5061805;28;20425;-86
2022/08/21 10:00:37;;;;;;;5.47;4.23;;;44.20;27.00;;;;;;5058408;28;20445;-86
2022/08/21 10:03:15;;;;;;;6.60;4.07;;;44.70;26.60;;;;;;5058174;28;20469;-86
2022/08/21 10:05:54;;;;;;;5.57;4.10;;;44.90;26.00;;;;;;5056874;28;21030;-86
2022/08/21 10:08:23;;;;;;;5.10;4.00;;;45.30;25.50;;;;;;5057758;28;20457;-86
2022/08/21 10:10:54;;;;;;;5.00;4.27;;;44.30;26.00;;;;;;5058161;28;20802;-87
2022/08/21 10:13:36;;;;;;;4.53;3.67;;;43.30;26.90;;;;;;5058544;28;20477;-86
2022/08/21 10:16:16;;;;;;;4.30;3.70;;;43.00;26.50;;;;;;5058269;28;20441;-86
2022/08/21 10:18:53;;;;;;;6.30;3.90;;;43.80;25.70;;;;;;5058063;28;20930;-86
2022/08/21 10:21:27;;;;;;;5.00;4.10;;;44.20;25.90;;;;;;5057495;28;20456;-86
2022/08/21 10:24:06;;;;;;;6.27;4.20;;;45.20;25.30;;;;;;5063962;28;20425;-86
2022/08/21 10:26:43;;;;;;;5.70;4.13;;;45.50;25.10;;;;;;5077524;28;20521;-87
2022/08/21 10:29:24;;;;;;;6.70;4.27;;;45.50;25.10;;;;;;5077879;28;20476;-89
2022/08/21 10:31:57;;;;;;;4.73;3.90;;;45.90;24.30;;;;;;5081536;28;20491;-88
2022/08/21 10:34:39;;;;;;;7.70;4.00;;;46.70;24.00;;;;;;5081747;28;20412;-87
2022/08/21 10:37:19;;;;;;;5.40;3.90;;;46.70;23.30;;;;;;5081122;28;20416;-88
2022/08/21 10:39:55;;;;;;;7.40;4.23;;;46.20;23.60;;;;;;5064077;28;20498;-86
2022/08/21 10:42:33;;;;;;;7.50;4.87;;;45.70;24.00;;;;;;5059200;28;20476;-86
2022/08/21 10:45:14;;;;;;;5.57;4.53;;;43.40;24.80;;;;;;5060337;28;20449;-86
2022/08/21 10:47:47;;;;;;;4.70;3.90;;;39.00;28.00;;;;;;5060649;28;20452;-85
2022/08/21 10:50:27;;;;;;;5.13;4.17;;;40.00;28.10;;;;;;5061277;28;20452;-86
2022/08/21 10:53:08;;;;;;;4.87;4.37;;;41.40;27.70;;;;;;5059665;28;20906;-86
2022/08/21 10:55:38;;;;;;;5.53;4.27;;;42.10;26.70;;;;;;5061817;28;20510;-85
2022/08/21 10:58:11;;;;;;;4.17;3.80;;;42.60;26.60;;;;;;5060274;28;20452;-86
2022/08/21 11:00:46;;;;;;;6.03;4.30;;;43.60;25.60;;;;;;5060086;28;20548;-85
2022/08/21 11:03:17;;;;;;;5.30;3.93;;;43.90;24.60;;;;;;5060111;28;20474;-85
2022/08/21 11:05:51;;;;;;;4.40;3.73;;;45.00;24.70;;;;;;5068951;28;20479;-85
2022/08/21 11:08:24;;;;;;;6.03;4.83;;;44.80;24.20;;;;;;5066932;28;20839;-87
2022/08/21 11:10:55;;;;;;;5.30;4.40;;;43.20;24.70;;;;;;5065519;28;20456;-86
2022/08/21 11:13:30;;;;;;;5.10;3.53;;;40.80;26.10;;;;;;5067022;28;20867;-86
2022/08/21 11:16:04;;;;;;;4.97;4.03;;;42.10;26.60;;;;;;5063537;28;20445;-86
2022/08/21 11:18:35;;;;;;;5.50;4.13;;;41.50;26.40;;;;;;5075985;28;20421;-85
2022/08/21 11:21:09;;;;;;;7.53;4.43;;;43.00;25.50;;;;;;5073268;28;20448;-85
2022/08/21 11:23:45;;;;;;;8.10;4.77;;;43.20;25.20;;;;;;5070647;28;20462;-85
2022/08/21 11:26:18;;;;;;;4.90;3.80;;;44.40;24.60;;;;;;5078182;28;20802;-86
2022/08/21 11:28:50;;;;;;;3.87;3.50;;;45.00;23.90;;;;;;5079752;28;20439;-85
2022/08/21 11:31:33;;;;;;;5.97;4.40;;;45.50;23.70;;;;;;5075339;28;20468;-84
2022/08/21 11:34:16;;;;;;;4.20;3.80;;;45.30;23.20;;;;;;5063841;28;20488;-86
2022/08/21 11:36:50;;;;;;;6.80;4.13;;;44.50;23.90;;;;;;5061884;28;20449;-85
2022/08/21 11:39:26;;;;;;;6.43;3.80;;;43.80;24.10;;;;;;5066827;28;20502;-85
2022/08/21 11:42:08;;;;;;;4.93;3.73;;;43.50;24.30;;;;;;5065293;28;20518;-85
2022/08/21 11:44:53;;;;;;;4.97;4.00;;;44.50;24.00;;;;;;5061954;28;20445;-86
2022/08/21 11:47:31;;;;;;;5.30;3.60;;;44.10;23.50;;;;;;5062569;28;20869;-85
2022/08/21 11:50:13;;;;;;;5.43;3.70;;;41.40;25.00;;;;;;5062458;28;20838;-86
2022/08/21 11:52:44;;;;;;;4.77;3.73;;;41.40;25.90;;;;;;5062968;28;20489;-86
2022/08/21 11:55:17;;;;;;;5.87;3.80;;;42.60;25.50;;;;;;5057660;28;20964;-86
2022/08/21 11:57:52;;;;;;;4.27;3.30;;;43.80;24.20;;;;;;5055590;28;20453;-86
2022/08/21 12:00:23;;;;;;;5.47;3.97;;;44.10;23.70;;;;;;5057200;28;20483;-85
2022/08/21 12:02:53;;;;;;;4.70;3.57;;;43.90;23.80;;;;;;5057325;28;20473;-87
2022/08/21 12:05:28;;;;;;;5.03;3.50;;;44.50;23.70;;;;;;5056855;28;20888;-85
2022/08/21 12:08:03;;;;;;;6.30;4.30;;;45.30;23.20;;;;;;5057252;28;20460;-86
2022/08/21 12:10:35;;;;;;;8.43;4.73;;;46.10;22.70;;;;;;5056635;28;20445;-86
2022/08/21 12:13:11;;;;;;;6.43;4.13;;;46.90;22.20;;;;;;5056669;28;20495;-85
2022/08/21 12:15:40;;;;;;;6.83;3.90;;;46.90;21.50;;;;;;5057434;28;21067;-85
2022/08/21 12:18:22;;;;;;;3.60;3.27;;;46.50;22.00;;;;;;5057593;28;20464;-85
2022/08/21 12:21:03;;;;;;;5.67;4.00;;;47.10;21.70;;;;;;5057399;28;20452;-85
2022/08/21 12:23:32;;;;;;;4.60;3.80;;;44.10;22.50;;;;;;5059366;28;20464;-85
2022/08/21 12:26:27;;;;;;;5.13;4.00;;;41.00;24.70;;;;;;5059903;28;20453;-85
2022/08/21 12:29:24;;;;;;;5.63;4.03;;;39.90;26.10;;;;;;5059328;28;20444;-85
2022/08/21 12:31:58;;;;;;;4.00;3.57;;;39.10;26.80;;;;;;5053244;28;20492;-86
2022/08/21 12:34:34;;;;;;;3.97;3.60;;;39.80;26.90;;;;;;5079170;28;20466;-86
2022/08/21 12:37:04;;;;;;;4.67;3.70;;;41.50;25.90;;;;;;5078237;28;20463;-86
2022/08/21 12:39:33;;;;;;;4.33;3.67;;;42.30;24.50;;;;;;5059709;28;20519;-86
2022/08/21 12:42:07;;;;;;;6.73;4.10;;;41.20;25.20;;;;;;5056620;28;20857;-86
2022/08/21 12:44:41;;;;;;;3.50;3.20;;;40.60;25.80;;;;;;5057825;28;20456;-85
2022/08/21 12:47:16;;;;;;;4.33;3.67;;;39.40;26.70;;;;;;5060957;28;20456;-85
2022/08/21 12:49:53;;;;;;;5.23;3.90;;;40.40;26.20;;;;;;5073321;28;20424;-85
2022/08/21 12:52:26;;;;;;;5.13;4.10;;;40.40;26.00;;;;;;5077340;28;20456;-87
2022/08/21 12:54:53;;;;;;;4.80;4.30;;;41.30;25.40;;;;;;5076529;28;20436;-87
2022/08/21 12:57:24;;;;;;;5.23;4.10;;;40.10;25.80;;;;;;5071497;28;20512;-87
2022/08/21 12:59:55;;;;;;;7.20;3.67;;;38.00;27.70;;;;;;5074788;28;20449;-86
2022/08/21 13:02:25;;;;;;;5.50;3.30;;;38.00;27.90;;;;;;5059121;28;20475;-86